Time;durP1;ratioP1;P1;durP2;ratioP2;P2;SDS_P1;SDS_P2;PMS_P1;PMS_P2;Temp;Humidity;BMP_temperature;BMP_pressure;BME280_temperature;BME280_humidity;BME280_pressure;Samples;Min_cycle;Max_cycle;Signal;HPM_P1;HPM_P2
2023/10/15 00:00:34;;;;;;;7.28;2.40;;;;;;;13.50;55.53;101763.03;5121344;28;20085;-67
2023/10/15 00:03:02;;;;;;;7.18;2.63;;;;;;;13.49;55.55;101751.41;5121189;28;20051;-67
2023/10/15 00:05:30;;;;;;;9.40;2.78;;;;;;;13.50;55.41;101760.31;5109269;28;20051;-67
2023/10/15 00:07:58;;;;;;;9.05;2.20;;;;;;;13.49;55.35;101753.25;5124396;28;20044;-67
2023/10/15 00:10:28;;;;;;;8.48;2.47;;;;;;;13.47;55.42;101758.88;5119203;28;20121;-67
2023/10/15 00:12:58;;;;;;;5.78;2.10;;;;;;;13.46;55.67;101759.94;5123601;28;20082;-68
2023/10/15 00:15:28;;;;;;;8.50;2.72;;;;;;;13.47;55.56;101764.28;5122743;28;20068;-67
2023/10/15 00:18:01;;;;;;;5.10;2.20;;;;;;;13.47;55.39;101763.47;5121837;28;20050;-67
2023/10/15 00:20:34;;;;;;;6.65;2.65;;;;;;;13.42;55.32;101766.81;5108666;28;20047;-67
2023/10/15 00:23:05;;;;;;;6.78;1.95;;;;;;;13.41;55.57;101781.34;5120526;28;20071;-68
2023/10/15 00:25:37;;;;;;;6.43;2.55;;;;;;;13.38;55.55;101795.28;5119401;28;20109;-68
2023/10/15 00:28:09;;;;;;;9.82;2.58;;;;;;;13.38;55.36;101789.91;5121729;28;20047;-67
2023/10/15 00:30:39;;;;;;;6.72;2.33;;;;;;;13.37;55.49;101787.41;5117974;28;20153;-67
2023/10/15 00:33:11;;;;;;;5.75;2.50;;;;;;;13.35;55.77;101783.06;5120019;28;20044;-67
2023/10/15 00:35:44;;;;;;;6.35;2.38;;;;;;;13.34;55.55;101785.97;5115229;28;20056;-67
2023/10/15 00:38:16;;;;;;;6.38;2.15;;;;;;;13.35;55.49;101799.25;5116787;28;20051;-68
2023/10/15 00:40:45;;;;;;;7.07;2.22;;;;;;;13.37;55.31;101790.13;5122547;28;20055;-67
2023/10/15 00:43:17;;;;;;;6.00;2.10;;;;;;;13.21;55.70;101765.28;5123089;28;20055;-67
2023/10/15 00:45:46;;;;;;;8.80;3.60;;;;;;;13.33;55.63;101778.91;5114799;28;20072;-67
2023/10/15 00:48:24;;;;;;;6.78;2.75;;;;;;;13.30;55.26;101777.47;5124010;28;20043;-68
2023/10/15 00:50:55;;;;;;;6.70;2.70;;;;;;;13.24;55.50;101764.84;5117837;28;20051;-67
2023/10/15 00:53:27;;;;;;;8.32;2.40;;;;;;;13.30;55.50;101782.06;5125241;28;20062;-67
2023/10/15 00:56:01;;;;;;;9.98;2.22;;;;;;;13.26;55.71;101786.22;5124988;28;20067;-67
2023/10/15 00:58:33;;;;;;;7.95;3.25;;;;;;;13.26;55.55;101784.34;5125872;28;20039;-67
2023/10/15 01:01:19;;;;;;;7.10;2.83;;;;;;;13.27;55.20;101785.19;5124664;28;20054;-67
2023/10/15 01:03:55;;;;;;;5.88;2.13;;;;;;;13.27;55.17;101782.47;5124867;28;20050;-68
2023/10/15 01:06:31;;;;;;;8.32;2.65;;;;;;;13.25;55.52;101788.09;5125885;28;20104;-67
2023/10/15 01:09:08;;;;;;;6.63;2.25;;;;;;;13.26;55.43;101784.34;5124775;28;20096;-67
2023/10/15 01:11:37;;;;;;;6.65;3.03;;;;;;;13.22;55.79;101771.50;5119657;28;20099;-68
2023/10/15 01:14:05;;;;;;;5.32;2.30;;;;;;;13.24;55.79;101777.53;5126002;28;20370;-67
2023/10/15 01:16:36;;;;;;;4.95;2.17;;;;;;;13.23;55.59;101775.88;5117855;28;20047;-68
2023/10/15 01:19:17;;;;;;;6.00;2.50;;;;;;;13.23;55.73;101765.06;5114071;28;20047;-69
2023/10/15 01:21:52;;;;;;;5.55;2.30;;;;;;;13.22;56.36;101766.13;5120891;28;20048;-67
2023/10/15 01:24:20;;;;;;;5.43;2.13;;;;;;;13.21;56.06;101761.75;5121603;28;20065;-67
2023/10/15 01:26:59;;;;;;;4.50;2.17;;;;;;;13.20;56.19;101763.63;5124313;28;20051;-67
2023/10/15 01:29:28;;;;;;;3.80;2.17;;;;;;;13.19;56.39;101763.84;5118381;28;20055;-67
2023/10/15 01:31:58;;;;;;;6.57;2.65;;;;;;;13.19;56.28;101759.28;5124017;28;20044;-68
2023/10/15 01:34:27;;;;;;;7.13;2.42;;;;;;;13.19;56.34;101755.75;5115413;28;20091;-68
2023/10/15 01:36:57;;;;;;;6.75;2.13;;;;;;;13.18;56.70;101756.78;5121269;28;20396;-68
2023/10/15 01:39:37;;;;;;;5.00;2.13;;;;;;;13.17;56.39;101750.56;5120440;28;20044;-67
2023/10/15 01:42:07;;;;;;;7.68;2.70;;;;;;;13.16;56.47;101759.72;5124516;28;20146;-68
2023/10/15 01:44:39;;;;;;;7.35;2.70;;;;;;;13.16;56.78;101751.59;5125456;28;20576;-68
2023/10/15 01:47:11;;;;;;;8.40;2.35;;;;;;;13.15;56.74;101746.41;5120170;28;20055;-68
2023/10/15 01:49:39;;;;;;;5.18;2.13;;;;;;;13.14;56.77;101742.03;5123318;28;20054;-68
2023/10/15 01:52:09;;;;;;;4.65;2.22;;;;;;;13.09;56.48;101734.59;5107972;28;20508;-68
2023/10/15 01:54:37;;;;;;;7.68;2.65;;;;;;;13.14;56.64;101742.88;5124154;28;20558;-68
2023/10/15 01:57:07;;;;;;;6.43;2.28;;;;;;;13.12;56.77;101742.25;5124517;28;20047;-68
2023/10/15 01:59:45;;;;;;;6.78;2.42;;;;;;;13.11;56.75;101746.00;5123993;28;20138;-68
2023/10/15 02:02:14;;;;;;;7.20;2.78;;;;;;;13.11;56.66;101737.91;5117662;28;20074;-68
2023/10/15 02:04:45;;;;;;;8.85;2.70;;;;;;;13.11;56.70;101745.19;5126589;28;20043;-68
2023/10/15 02:07:17;;;;;;;8.60;2.97;;;;;;;13.10;56.57;101752.44;5116149;28;20501;-68
2023/10/15 02:09:45;;;;;;;8.15;3.03;;;;;;;13.09;56.72;101753.50;5124758;28;20048;-68
2023/10/15 02:12:18;;;;;;;7.55;2.55;;;;;;;12.95;56.53;101725.75;5125253;28;20051;-68
2023/10/15 02:14:47;;;;;;;7.60;2.40;;;;;;;13.09;56.72;101742.69;5125755;28;20431;-67
2023/10/15 02:17:18;;;;;;;6.65;2.03;;;;;;;13.07;56.66;101743.94;5121845;28;20125;-69
2023/10/15 02:19:47;;;;;;;8.23;2.15;;;;;;;13.06;56.53;101742.28;5118627;28;20117;-67
2023/10/15 02:22:16;;;;;;;6.45;2.30;;;;;;;13.01;56.84;101734.84;5121609;28;20044;-68
2023/10/15 02:24:47;;;;;;;5.45;2.15;;;;;;;13.06;56.54;101739.59;5116111;28;20055;-67
2023/10/15 02:27:23;;;;;;;7.05;2.85;;;;;;;13.06;56.36;101743.13;5125893;28;20058;-68
2023/10/15 02:29:51;;;;;;;8.20;2.30;;;;;;;13.07;56.74;101741.25;5122616;28;20075;-68
2023/10/15 02:32:30;;;;;;;4.80;2.05;;;;;;;13.07;56.35;101739.38;5123677;28;20044;-68
2023/10/15 02:34:59;;;;;;;6.50;2.22;;;;;;;13.04;56.48;101746.03;5121061;28;20067;-68
2023/10/15 02:37:27;;;;;;;6.03;2.05;;;;;;;13.01;56.46;101740.25;5111739;28;20044;-68
2023/10/15 02:39:58;;;;;;;5.85;3.17;;;;;;;12.99;56.90;101743.16;5123512;28;20040;-68
2023/10/15 02:42:35;;;;;;;7.15;2.05;;;;;;;12.99;56.91;101745.84;5120179;28;20047;-68
2023/10/15 02:45:06;;;;;;;6.82;2.28;;;;;;;13.01;56.95;101746.47;5122480;28;20175;-68
2023/10/15 02:47:41;;;;;;;5.25;2.10;;;;;;;13.00;56.69;101747.50;5118075;28;20048;-68
2023/10/15 02:50:16;;;;;;;7.05;2.58;;;;;;;12.99;56.45;101750.44;5123942;28;20035;-68
2023/10/15 02:52:45;;;;;;;7.47;2.20;;;;;;;12.98;56.78;101743.38;5124273;28;20130;-68
2023/10/15 02:55:26;;;;;;;6.20;2.05;;;;;;;13.00;56.45;101744.00;5115464;28;20074;-68
2023/10/15 02:58:01;;;;;;;6.22;2.25;;;;;;;13.00;56.24;101744.81;5122886;28;20078;-68
2023/10/15 03:00:32;;;;;;;8.15;2.33;;;;;;;12.98;56.73;101741.50;5122242;28;20052;-68
2023/10/15 03:03:09;;;;;;;6.13;2.50;;;;;;;12.80;56.46;101713.59;5121095;28;20461;-68
2023/10/15 03:05:40;;;;;;;4.30;1.55;;;;;;;12.93;56.77;101735.94;5121105;28;20048;-68
2023/10/15 03:08:16;;;;;;;5.25;2.00;;;;;;;12.93;56.86;101732.41;5122344;28;20051;-68
2023/10/15 03:10:55;;;;;;;5.27;1.77;;;;;;;12.95;56.47;101739.25;5125004;28;20051;-68
2023/10/15 03:13:26;;;;;;;5.43;1.95;;;;;;;12.96;56.58;101740.06;5115559;28;20039;-68
2023/10/15 03:15:57;;;;;;;5.57;1.95;;;;;;;12.95;56.43;101728.44;5119978;28;20107;-68
2023/10/15 03:18:28;;;;;;;3.33;1.70;;;;;;;12.93;56.55;101733.22;5119456;28;20056;-68
2023/10/15 03:21:09;;;;;;;5.03;2.00;;;;;;;12.94;56.29;101752.94;5116533;28;20052;-68
2023/10/15 03:23:39;;;;;;;4.75;1.88;;;;;;;12.89;56.41;101780.56;5123072;28;20066;-67
2023/10/15 03:26:08;;;;;;;6.55;2.13;;;;;;;12.86;56.73;101783.69;5119316;28;20235;-68
2023/10/15 03:28:44;;;;;;;4.40;1.83;;;;;;;12.85;56.83;101787.44;5125194;28;20119;-68
2023/10/15 03:31:15;;;;;;;6.30;2.00;;;;;;;12.86;56.61;101772.06;5116607;28;20048;-68
2023/10/15 03:34:12;;;;;;;7.28;1.73;;;;;;;12.82;56.72;101778.94;5121483;28;20077;-68
2023/10/15 03:36:43;;;;;;;4.35;2.00;;;;;;;12.76;56.88;101799.50;5119914;28;20044;-68
2023/10/15 03:39:15;;;;;;;3.85;1.88;;;;;;;12.73;56.76;101797.22;5114466;28;20104;-68
2023/10/15 03:41:49;;;;;;;4.70;1.95;;;;;;;12.71;56.80;101786.66;5124418;28;20117;-68
2023/10/15 03:44:27;;;;;;;5.60;2.17;;;;;;;12.69;57.03;101796.00;5118536;28;20055;-68
2023/10/15 03:47:04;;;;;;;5.57;2.28;;;;;;;12.73;56.87;101793.72;5112965;28;20081;-68
2023/10/15 03:49:33;;;;;;;5.28;1.98;;;;;;;12.72;56.67;101795.56;5120196;28;20112;-68
2023/10/15 03:52:07;;;;;;;6.57;2.17;;;;;;;12.74;56.57;101795.38;5117307;28;20071;-68
2023/10/15 03:54:37;;;;;;;4.97;2.13;;;;;;;12.73;56.57;101797.22;5117227;28;20055;-68
2023/10/15 03:57:07;;;;;;;9.27;2.15;;;;;;;12.75;56.68;101803.25;5121110;28;20112;-68
2023/10/15 03:59:42;;;;;;;7.85;2.97;;;;;;;12.76;56.90;101802.19;5115836;28;20573;-67
2023/10/15 04:02:13;;;;;;;10.98;2.15;;;;;;;12.77;57.03;101813.81;5120162;28;20077;-68
2023/10/15 04:04:42;;;;;;;6.75;2.25;;;;;;;12.76;57.15;101807.59;5123545;28;20075;-68
2023/10/15 04:07:19;;;;;;;3.95;1.98;;;;;;;12.65;57.12;101787.50;5122771;28;20051;-68
2023/10/15 04:09:50;;;;;;;4.28;2.08;;;;;;;12.78;56.86;101808.22;5117696;28;20056;-68
2023/10/15 04:12:19;;;;;;;4.15;1.70;;;;;;;12.80;57.00;101816.91;5121451;28;20047;-68
2023/10/15 04:14:48;;;;;;;6.55;2.20;;;;;;;12.77;56.58;101838.09;5120312;28;20108;-68
2023/10/15 04:17:16;;;;;;;5.00;2.42;;;;;;;12.75;57.26;101843.69;5120186;28;20047;-69
2023/10/15 04:19:44;;;;;;;3.92;1.63;;;;;;;12.76;57.14;101847.22;5118475;28;20085;-69
2023/10/15 04:22:14;;;;;;;5.00;1.90;;;;;;;12.74;57.35;101854.72;5111484;28;20476;-69
2023/10/15 04:24:46;;;;;;;3.67;1.58;;;;;;;12.74;57.22;101858.22;5121867;28;20054;-69
2023/10/15 04:27:19;;;;;;;6.45;2.35;;;;;;;12.70;57.40;101849.72;5119600;28;20044;-69
2023/10/15 04:29:52;;;;;;;5.20;1.60;;;;;;;12.71;57.31;101834.38;5117580;28;20208;-69
2023/10/15 04:32:28;;;;;;;6.50;2.60;;;;;;;12.71;57.58;101820.91;5119782;28;20047;-69
2023/10/15 04:35:01;;;;;;;5.28;1.90;;;;;;;12.70;57.53;101822.75;5120274;28;20087;-70
2023/10/15 04:37:34;;;;;;;8.02;2.25;;;;;;;12.71;57.50;101826.28;5113744;28;20048;-70
2023/10/15 04:40:04;;;;;;;3.42;1.83;;;;;;;12.66;57.64;101816.13;5109998;28;20046;-70
2023/10/15 04:42:48;;;;;;;6.72;1.90;;;;;;;12.69;57.80;101831.06;5112077;28;20044;-69
2023/10/15 04:45:23;;;;;;;3.28;1.77;;;;;;;12.68;58.11;101827.53;5109493;28;20093;-69
2023/10/15 04:47:54;;;;;;;5.53;2.08;;;;;;;12.69;58.07;101821.09;5120861;28;20116;-69
2023/10/15 04:50:28;;;;;;;5.65;1.70;;;;;;;12.71;58.19;101820.91;5122693;28;20444;-69
2023/10/15 04:53:02;;;;;;;2.97;1.52;;;;;;;12.69;58.05;101831.06;5121447;28;20044;-69
2023/10/15 04:55:30;;;;;;;4.03;1.77;;;;;;;12.69;58.05;101813.00;5119672;28;20052;-69
2023/10/15 04:57:58;;;;;;;3.83;1.60;;;;;;;12.69;58.06;101810.31;5120115;28;20044;-68
2023/10/15 05:00:27;;;;;;;4.40;1.77;;;;;;;12.68;58.41;101803.25;5117576;28;20051;-69
2023/10/15 05:02:55;;;;;;;3.08;1.77;;;;;;;12.69;58.20;101809.50;5112069;28;20465;-68
2023/10/15 05:05:23;;;;;;;2.95;1.77;;;;;;;12.68;58.24;101800.56;5116493;28;20055;-68
2023/10/15 05:07:51;;;;;;;3.63;1.55;;;;;;;12.67;58.20;101798.09;5123161;28;20060;-68
2023/10/15 05:10:20;;;;;;;4.95;1.60;;;;;;;12.68;58.25;101794.34;5114633;28;20040;-68
2023/10/15 05:12:51;;;;;;;2.70;1.52;;;;;;;12.66;58.48;101793.72;5118624;28;20050;-68
2023/10/15 05:15:19;;;;;;;4.70;1.83;;;;;;;12.66;58.38;101801.81;5117127;28;20047;-69
2023/10/15 05:17:49;;;;;;;3.67;1.42;;;;;;;12.66;58.44;101807.22;5119887;28;20430;-68
2023/10/15 05:20:20;;;;;;;3.22;1.45;;;;;;;12.65;58.30;101803.69;5114879;28;20546;-68
2023/10/15 05:22:48;;;;;;;3.00;1.80;;;;;;;12.64;58.54;101785.03;5118789;28;20047;-69
2023/10/15 05:25:17;;;;;;;2.30;1.30;;;;;;;12.65;58.28;101790.19;5118139;28;20074;-68
2023/10/15 05:27:45;;;;;;;4.75;1.20;;;;;;;12.64;58.41;101790.41;5119604;28;20043;-69
2023/10/15 05:30:15;;;;;;;3.75;1.50;;;;;;;12.64;58.39;101793.13;5120811;28;20055;-69
2023/10/15 05:32:43;;;;;;;4.40;1.45;;;;;;;12.65;58.36;101792.06;5120217;28;20048;-69
2023/10/15 05:35:13;;;;;;;3.33;1.80;;;;;;;12.66;58.73;101793.72;5120243;28;20052;-69
2023/10/15 05:37:41;;;;;;;4.60;2.08;;;;;;;12.65;58.56;101805.56;5114446;28;20124;-69
2023/10/15 05:40:12;;;;;;;2.65;1.27;;;;;;;12.49;58.54;101796.06;5122395;28;20111;-69
2023/10/15 05:42:41;;;;;;;5.18;1.40;;;;;;;12.47;58.24;101800.00;5119519;28;20060;-69
2023/10/15 05:45:10;;;;;;;2.20;1.10;;;;;;;12.60;58.20;101825.06;5123106;28;20393;-69
2023/10/15 05:47:38;;;;;;;2.33;1.38;;;;;;;12.55;58.38;101829.44;5122576;28;20081;-69
2023/10/15 05:50:08;;;;;;;2.92;1.25;;;;;;;12.54;58.84;101854.75;5124093;28;20430;-69
2023/10/15 05:52:38;;;;;;;2.05;1.48;;;;;;;12.54;58.63;101860.97;5125894;28;20043;-69
2023/10/15 05:55:06;;;;;;;4.03;1.20;;;;;;;12.49;58.46;101870.72;5126815;28;20046;-70
2023/10/15 05:57:35;;;;;;;3.92;1.73;;;;;;;12.43;58.41;101876.94;5119380;28;20052;-69
2023/10/15 06:00:17;;;;;;;4.60;1.35;;;;;;;12.42;58.59;101873.44;5123342;28;20040;-69
2023/10/15 06:02:46;;;;;;;1.35;1.00;;;;;;;12.35;58.33;101891.47;5116534;28;20047;-70
2023/10/15 06:05:15;;;;;;;4.68;1.77;;;;;;;12.30;58.36;101885.88;5125455;28;20427;-70
2023/10/15 06:07:44;;;;;;;2.60;1.40;;;;;;;12.26;58.23;101877.38;5123637;28;20140;-70
2023/10/15 06:10:13;;;;;;;3.13;1.27;;;;;;;12.32;58.87;101878.41;5120164;28;20084;-70
2023/10/15 06:12:41;;;;;;;6.60;1.60;;;;;;;12.36;58.93;101871.56;5122318;28;20056;-70
2023/10/15 06:15:11;;;;;;;5.05;1.98;;;;;;;12.37;58.49;101873.22;5122703;28;20044;-69
2023/10/15 06:17:46;;;;;;;3.95;1.52;;;;;;;12.41;58.38;101870.94;5122968;28;20491;-69
2023/10/15 06:20:15;;;;;;;2.28;1.20;;;;;;;12.42;58.54;101886.06;5110259;28;20051;-70
2023/10/15 06:22:46;;;;;;;2.42;1.10;;;;;;;12.43;58.60;101872.38;5116287;28;20063;-70
2023/10/15 06:25:16;;;;;;;3.03;1.00;;;;;;;12.45;58.54;101873.00;5120047;28;20051;-69
2023/10/15 06:27:45;;;;;;;1.90;1.17;;;;;;;12.45;58.72;101878.41;5123257;28;20054;-70
2023/10/15 06:30:16;;;;;;;2.53;1.17;;;;;;;12.32;58.69;101857.66;5123975;28;20115;-70
2023/10/15 06:32:48;;;;;;;2.22;1.30;;;;;;;12.44;58.83;101873.22;5122114;28;20106;-69
2023/10/15 06:35:19;;;;;;;1.80;1.05;;;;;;;12.44;59.05;101875.91;5122549;28;20057;-69
2023/10/15 06:37:49;;;;;;;4.00;1.20;;;;;;;12.45;58.75;101885.66;5119708;28;20121;-69
2023/10/15 06:40:17;;;;;;;2.70;1.10;;;;;;;12.43;58.88;101880.47;5121992;28;20523;-70
2023/10/15 06:42:52;;;;;;;2.50;1.10;;;;;;;12.44;59.10;101884.84;5120121;28;20152;-69
2023/10/15 06:45:21;;;;;;;4.72;1.50;;;;;;;12.43;59.05;101883.16;5115121;28;20086;-70
2023/10/15 06:47:52;;;;;;;2.70;1.45;;;;;;;12.45;59.09;101893.75;5118283;28;20069;-69
2023/10/15 06:50:22;;;;;;;4.45;1.23;;;;;;;12.43;58.60;101885.03;5124494;28;20052;-69
2023/10/15 06:52:55;;;;;;;1.95;1.00;;;;;;;12.42;58.67;101878.81;5114644;28;20152;-69
2023/10/15 06:55:24;;;;;;;3.45;1.52;;;;;;;12.40;58.75;101867.41;5125116;28;20048;-69
2023/10/15 06:57:53;;;;;;;3.17;1.20;;;;;;;12.40;58.94;101867.41;5122720;28;20051;-70
2023/10/15 07:00:24;;;;;;;1.98;1.05;;;;;;;12.38;58.51;101869.50;5118873;28;20050;-69
2023/10/15 07:02:55;;;;;;;2.65;1.20;;;;;;;12.36;58.77;101879.66;5124453;28;20116;-69
2023/10/15 07:05:25;;;;;;;1.33;0.85;;;;;;;12.39;58.74;101882.75;5121632;28;20058;-69
2023/10/15 07:07:57;;;;;;;3.25;1.40;;;;;;;12.39;58.57;101890.84;5122724;28;20051;-69
2023/10/15 07:10:27;;;;;;;3.53;1.50;;;;;;;12.37;58.52;101901.00;5122585;28;20077;-69
2023/10/15 07:12:56;;;;;;;4.22;1.20;;;;;;;12.38;58.82;101910.75;5115047;28;20052;-69
2023/10/15 07:15:24;;;;;;;5.32;1.15;;;;;;;12.38;58.83;101908.06;5122424;28;20047;-69
2023/10/15 07:17:53;;;;;;;5.07;1.20;;;;;;;12.38;58.85;101899.16;5122368;28;20111;-69
2023/10/15 07:20:24;;;;;;;3.70;1.23;;;;;;;12.39;58.73;101896.25;5118612;28;20055;-68
2023/10/15 07:22:56;;;;;;;1.02;0.77;;;;;;;12.26;59.12;101871.16;5117190;28;20300;-68
2023/10/15 07:25:26;;;;;;;1.20;0.90;;;;;;;12.39;59.20;101904.31;5116375;28;20047;-69
2023/10/15 07:27:57;;;;;;;3.30;1.45;;;;;;;12.41;58.93;101914.06;5120069;28;20055;-68
2023/10/15 07:30:26;;;;;;;3.38;1.15;;;;;;;12.42;58.91;101924.66;5121119;28;20074;-68
2023/10/15 07:32:57;;;;;;;2.20;1.33;;;;;;;12.42;59.07;101932.75;5120041;28;20055;-68
2023/10/15 07:35:27;;;;;;;2.50;1.30;;;;;;;12.40;59.49;101929.41;5118924;28;20238;-68
2023/10/15 07:37:57;;;;;;;3.97;1.35;;;;;;;12.27;58.98;101916.78;5108945;28;20052;-68
2023/10/15 07:40:27;;;;;;;3.17;1.35;;;;;;;12.42;58.95;101945.38;5116988;28;20044;-68
2023/10/15 07:42:58;;;;;;;4.70;1.30;;;;;;;12.42;59.30;101950.78;5118565;28;20085;-68
2023/10/15 07:45:29;;;;;;;4.97;1.25;;;;;;;12.43;59.42;101955.97;5118856;28;20104;-68
2023/10/15 07:48:01;;;;;;;3.90;1.15;;;;;;;12.46;59.39;101954.72;5120547;28;20069;-68
2023/10/15 07:50:30;;;;;;;3.20;1.30;;;;;;;12.29;58.75;101938.13;5121252;28;20066;-68
2023/10/15 07:53:01;;;;;;;5.85;1.35;;;;;;;12.41;59.51;101954.50;5115254;28;20051;-68
2023/10/15 07:55:31;;;;;;;2.22;1.55;;;;;;;12.42;59.53;101957.00;5121035;28;20098;-69
2023/10/15 07:57:59;;;;;;;2.10;1.20;;;;;;;12.43;59.32;101942.50;5114186;28;20048;-69
2023/10/15 08:00:29;;;;;;;5.13;1.40;;;;;;;12.42;59.06;101940.81;5118851;28;20477;-69
2023/10/15 08:02:58;;;;;;;1.90;0.98;;;;;;;12.42;59.46;101937.31;5123923;28;20057;-69
2023/10/15 08:05:31;;;;;;;2.50;1.05;;;;;;;12.44;59.59;101943.31;5119677;28;20059;-69
2023/10/15 08:08:05;;;;;;;3.58;1.35;;;;;;;12.44;59.72;101952.22;5108978;28;20358;-68
2023/10/15 08:10:34;;;;;;;2.92;1.10;;;;;;;12.41;59.33;101958.03;5123355;28;20063;-68
2023/10/15 08:13:05;;;;;;;4.25;1.27;;;;;;;12.44;59.72;101981.06;5120361;28;20096;-69
2023/10/15 08:15:34;;;;;;;1.80;1.10;;;;;;;12.42;59.47;101981.28;5114615;28;20104;-69
2023/10/15 08:18:03;;;;;;;3.42;1.55;;;;;;;12.39;59.72;101985.22;5120102;28;20064;-68
2023/10/15 08:20:32;;;;;;;2.35;1.00;;;;;;;12.41;59.39;101984.16;5120365;28;20054;-68
2023/10/15 08:23:01;;;;;;;2.38;1.00;;;;;;;12.40;59.67;101991.44;5117997;28;20039;-68
2023/10/15 08:25:32;;;;;;;5.57;1.42;;;;;;;12.43;59.81;101998.28;5110864;28;20047;-68
2023/10/15 08:28:03;;;;;;;4.63;1.65;;;;;;;12.41;59.62;101994.94;5120658;28;20157;-68
2023/10/15 08:30:32;;;;;;;5.68;1.50;;;;;;;12.40;59.60;102007.59;5122216;28;20043;-68
2023/10/15 08:33:01;;;;;;;4.00;1.35;;;;;;;12.35;59.85;102002.00;5123940;28;20048;-68
2023/10/15 08:35:29;;;;;;;5.18;1.02;;;;;;;12.40;59.74;102010.31;5122952;28;20082;-68
2023/10/15 08:37:59;;;;;;;1.40;1.00;;;;;;;12.38;59.90;102006.97;5115828;28;20052;-68
2023/10/15 08:40:29;;;;;;;4.25;1.77;;;;;;;12.23;59.69;101985.59;5118084;28;20048;-68
2023/10/15 08:43:06;;;;;;;3.75;1.42;;;;;;;12.36;59.82;102020.66;5116673;28;20135;-68
2023/10/15 08:45:35;;;;;;;3.90;1.48;;;;;;;12.33;59.63;102031.84;5122714;28;20057;-68
2023/10/15 08:48:09;;;;;;;7.72;2.15;;;;;;;12.30;59.80;102043.03;5123240;28;20711;-68
2023/10/15 08:50:38;;;;;;;3.38;1.40;;;;;;;12.14;59.88;102032.63;5121801;28;20058;-69
2023/10/15 08:53:08;;;;;;;4.50;1.48;;;;;;;12.28;59.88;102046.97;5120579;28;20059;-69
2023/10/15 08:55:37;;;;;;;3.80;1.10;;;;;;;12.26;60.31;102060.66;5111433;28;20044;-69
2023/10/15 08:58:09;;;;;;;3.85;1.20;;;;;;;12.12;60.32;102048.22;5121138;28;20048;-69
2023/10/15 09:00:39;;;;;;;4.35;1.42;;;;;;;12.09;60.23;102054.00;5121498;28;20062;-69
2023/10/15 09:03:13;;;;;;;6.35;1.80;;;;;;;12.22;60.52;102074.75;5116329;28;20043;-69
2023/10/15 09:05:43;;;;;;;5.97;1.50;;;;;;;12.22;60.55;102086.34;5122005;28;20107;-69
2023/10/15 09:08:13;;;;;;;2.20;0.90;;;;;;;12.22;60.09;102094.44;5120611;28;20051;-69
2023/10/15 09:10:42;;;;;;;2.42;1.08;;;;;;;12.19;60.23;102100.25;5123776;28;20039;-69
2023/10/15 09:13:15;;;;;;;6.03;1.10;;;;;;;12.15;60.48;102106.22;5126320;28;20123;-69
2023/10/15 09:15:44;;;;;;;3.72;1.25;;;;;;;12.14;60.05;102109.97;5120819;28;20044;-69
2023/10/15 09:18:15;;;;;;;4.07;1.23;;;;;;;12.12;60.43;102109.38;5121339;28;20157;-68
2023/10/15 09:20:50;;;;;;;3.17;1.05;;;;;;;11.99;59.98;102092.09;5121474;28;20531;-72
2023/10/15 09:23:21;;;;;;;5.47;1.58;;;;;;;12.09;60.37;102121.38;5122197;28;20154;-73
2023/10/15 09:25:53;;;;;;;5.25;1.65;;;;;;;12.10;60.62;102125.72;5123977;28;20047;-71
2023/10/15 09:28:27;;;;;;;6.38;1.88;;;;;;;12.12;60.38;102125.53;5124905;28;20079;-69
2023/10/15 09:31:03;;;;;;;4.15;1.73;;;;;;;12.14;60.71;102126.13;5123796;28;20111;-72
2023/10/15 09:33:32;;;;;;;4.75;1.27;;;;;;;12.11;60.63;102122.00;5117995;28;20036;-70
2023/10/15 09:36:02;;;;;;;9.55;1.48;;;;;;;12.14;60.56;102136.91;5117128;28;20048;-70
2023/10/15 09:38:31;;;;;;;3.00;0.93;;;;;;;12.16;60.66;102137.53;5121761;28;20043;-70
2023/10/15 09:40:59;;;;;;;3.63;1.48;;;;;;;12.13;60.66;102133.41;5119965;28;20052;-71
2023/10/15 09:43:31;;;;;;;6.70;1.27;;;;;;;12.13;60.50;102132.59;5122328;28;20051;-71
2023/10/15 09:46:00;;;;;;;2.58;1.25;;;;;;;12.11;60.69;102127.41;5121162;28;20094;-70
2023/10/15 09:48:28;;;;;;;4.97;1.13;;;;;;;12.12;60.89;102126.38;5124954;28;20048;-70
2023/10/15 09:50:59;;;;;;;4.60;1.13;;;;;;;12.12;60.93;102126.38;5121170;28;20097;-70
2023/10/15 09:53:28;;;;;;;4.50;1.42;;;;;;;12.15;60.60;102130.50;5123052;28;20074;-73
2023/10/15 09:55:57;;;;;;;4.25;1.23;;;;;;;12.14;60.60;102137.75;5122891;28;20047;-71
2023/10/15 09:58:26;;;;;;;3.33;0.88;;;;;;;12.18;61.30;102140.88;5120894;28;20189;-70
2023/10/15 10:01:08;;;;;;;3.65;1.30;;;;;;;12.16;60.94;102143.75;5122586;28;20048;-71
2023/10/15 10:03:59;;;;;;;2.35;1.10;;;;;;;12.17;61.00;102139.19;5119137;28;20058;-68
2023/10/15 10:06:54;;;;;;;5.40;1.20;;;;;;;12.16;60.96;102124.91;5120564;28;20063;-70
2023/10/15 10:09:47;;;;;;;4.95;1.35;;;;;;;12.47;60.30;102155.91;5119771;28;20044;-69
2023/10/15 10:12:28;;;;;;;2.50;1.15;;;;;;;12.72;59.56;102148.94;5115559;28;20065;-72
2023/10/15 10:15:12;;;;;;;3.13;1.17;;;;;;;12.97;58.45;102146.47;5121387;28;20078;-71
2023/10/15 10:17:42;;;;;;;2.38;0.80;;;;;;;13.19;57.95;102148.00;5121999;28;20056;-70
2023/10/15 10:20:14;;;;;;;2.75;0.70;;;;;;;13.28;58.13;102148.63;5083352;28;20041;-71
2023/10/15 10:22:42;;;;;;;1.35;0.88;;;;;;;13.25;57.65;102157.97;5079350;28;20048;-71
2023/10/15 10:25:29;;;;;;;4.13;1.20;;;;;;;13.15;58.31;102157.50;5082115;28;20051;-71
2023/10/15 10:28:07;;;;;;;3.95;1.08;;;;;;;13.05;58.54;102151.69;5084101;28;20053;-71
2023/10/15 10:30:55;;;;;;;2.42;1.00;;;;;;;12.94;58.86;102153.13;5079564;28;20053;-73
2023/10/15 10:33:50;;;;;;;1.38;0.73;;;;;;;12.84;59.14;102160.78;5081234;28;20052;-73
2023/10/15 10:36:19;;;;;;;3.15;1.00;;;;;;;12.77;58.97;102164.50;5076129;28;20080;-73
2023/10/15 10:38:57;;;;;;;3.65;1.17;;;;;;;12.73;59.48;102169.47;5082551;28;20045;-74
2023/10/15 10:41:34;;;;;;;2.33;0.80;;;;;;;12.67;59.47;102163.03;5084987;28;20045;-74
2023/10/15 10:44:02;;;;;;;;;;;;;;;12.64;59.75;102168.00;5082328;28;20044;-72
2023/10/15 10:46:52;;;;;;;2.27;1.10;;;;;;;12.60;59.79;102175.66;5071044;28;19924;-72
2023/10/15 10:49:30;;;;;;;3.17;0.93;;;;;;;12.52;59.71;102180.41;5077086;28;20052;-71
2023/10/15 10:52:06;;;;;;;2.08;0.90;;;;;;;12.51;59.70;102176.03;5066215;28;20059;-72
2023/10/15 10:54:36;;;;;;;1.50;0.63;;;;;;;12.48;59.56;102179.97;5071042;28;20048;-73
2023/10/15 10:57:08;;;;;;;5.18;1.30;;;;;;;12.33;59.73;102152.34;5075742;28;20064;-72
2023/10/15 10:59:37;;;;;;;2.88;0.80;;;;;;;12.44;59.96;102176.03;5081382;28;20041;-72
2023/10/15 11:02:11;;;;;;;2.97;0.98;;;;;;;12.42;59.48;102178.09;4722580;28;9999834;-75
2023/10/15 11:04:41;;;;;;;2.67;1.00;;;;;;;12.42;59.31;102182.66;5079202;28;20102;-75
2023/10/15 11:07:11;;;;;;;3.22;1.65;;;;;;;12.36;59.44;102182.41;5069006;28;20057;-75
2023/10/15 11:09:39;;;;;;;1.58;0.88;;;;;;;12.41;59.58;102186.38;5074043;28;20062;-76
2023/10/15 11:12:10;;;;;;;5.18;1.10;;;;;;;12.38;59.96;102174.13;5078489;28;20049;-76
2023/10/15 11:14:39;;;;;;;3.40;1.23;;;;;;;12.40;59.81;102180.16;5076623;28;20060;-76
2023/10/15 11:17:09;;;;;;;4.20;1.20;;;;;;;12.39;59.93;102173.94;5072259;28;20045;-64
2023/10/15 11:19:37;;;;;;;3.08;1.05;;;;;;;12.41;59.87;102179.13;5105759;28;20085;-75
2023/10/15 11:22:07;;;;;;;1.55;0.60;;;;;;;12.39;60.23;102181.19;5114032;28;20056;-75
2023/10/15 11:24:35;;;;;;;5.35;1.17;;;;;;;12.38;60.22;102180.34;5113581;28;20081;-76
2023/10/15 11:27:06;;;;;;;6.45;1.00;;;;;;;12.37;60.08;102178.69;5116597;28;20056;-74
2023/10/15 11:29:35;;;;;;;1.88;0.70;;;;;;;12.24;60.00;102161.63;5117721;28;20055;-74
2023/10/15 11:32:06;;;;;;;3.53;1.25;;;;;;;12.38;59.98;102198.41;5119763;28;20104;-73
2023/10/15 11:34:35;;;;;;;2.58;0.95;;;;;;;12.36;59.82;102185.13;5115816;28;21146;-74
2023/10/15 11:37:03;;;;;;;3.83;0.88;;;;;;;12.39;59.98;102197.38;5117168;28;20044;-69
2023/10/15 11:39:41;;;;;;;3.38;1.00;;;;;;;12.42;60.19;102183.47;5119496;28;20104;-68
2023/10/15 11:42:10;;;;;;;3.15;1.05;;;;;;;12.43;60.17;102182.44;5119972;28;20451;-70
2023/10/15 11:44:42;;;;;;;2.28;0.82;;;;;;;12.41;60.21;102184.50;5120122;28;20108;-74